Sachs Harbour Airport, Northwest Territories

Past 24 Hour Conditions

Date / Time
(MST)
Conditions Temp
(°C)
Humidity
(%)
Dew Point
(°C)
Wind
(km/h)
Pressure
(kPa)
Vis
(km)
Wind Chill
22 November 2014
3:00 N/A -24 83 -26 N 25 101.3 N/A -37
2:00 N/A -23   84 -25 NNW 25 101.3 N/A -35
1:00 N/A -23   84 -25 NNW 25 101.3 N/A -36
00:00 N/A -25 81 -27 N 20 101.4 N/A -37
21 November 2014
23:00 N/A -25 83 -27 N 17 101.4 N/A -35
22:00 N/A -25 81 -28 N 18 101.5 N/A -37
21:00 N/A -25 82 -27 N 26 101.5 N/A -38
20:00 Drifting Snow -25 N/A N/A 37 101.6 16 -40
19:00 Mainly Clear -25 N/A N/A 28 101.6 16 -38
18:00 Partly Cloudy -24 14 -44 37 101.7 16 -39
17:00 Fog Patches -24 10 -47 37 101.7 16 -38
16:00 Fog Patches -24 13 -45 28 101.7 16 -38
15:00 Fog Patches -23   24 -38 N/A 101.8 16 *
14:00 Fog Patches -24 16 -42 N 18 101.8 16 -35
13:00 Fog Patches -25 15 -44 N 18 101.8 16 -36
12:00 Fog Patches -23   20 -40 N 18 101.8 16 -34
11:00 Ice Fog -23   20 -40 N 18 101.9 2 -34
10:00 Ice Fog -24 27 -38 N 18 101.9 2 -35
9:00 Mainly Clear -25 11 -47 N 18 101.9 16 -36
8:00 Mainly Clear -25 8 N/A N 18 101.9 16 -36
7:00 N/A -25 81 -28 NNW 25 101.8 N/A -39
6:00 N/A -25 82 -27 N 30 101.8 N/A -39
5:00 N/A -26 81 -28 NNW 27 101.8 N/A -39
4:00 N/A -27   80 -29 NNW 28 101.9 N/A -41
3:00 N/A -27   80 -29 N 26 102.0 N/A -41
N/A Not available
↑ Highest temperature
↓ Lowest temperature
* Value not significant.

If you require additional historical weather information, please visit Climate Data Online.

Date modified: